createdAt,value
2018-04-30T00:00:00.735Z,2.76
2018-04-30T00:05:51.649Z,3.18
2018-04-30T00:11:42.569Z,2.76
2018-04-30T00:17:33.405Z,2.68
2018-04-30T00:23:24.297Z,2.49
2018-04-30T00:29:15.186Z,1.91
2018-04-30T00:35:06.076Z,1.9
2018-04-30T00:40:56.925Z,2.49
2018-04-30T00:46:47.823Z,2.1
2018-04-30T00:52:38.723Z,1.83
2018-04-30T00:58:29.624Z,2.15
2018-04-30T01:04:20.509Z,2.22
2018-04-30T01:10:11.386Z,2.88
2018-04-30T01:16:02.252Z,2.6
2018-04-30T01:21:53.273Z,2.44
2018-04-30T01:27:44.116Z,1.84
2018-04-30T01:33:34.933Z,1.85
2018-04-30T01:39:25.821Z,1.84
2018-04-30T01:45:16.733Z,2.04
2018-04-30T01:56:58.466Z,1.69
2018-04-30T02:02:49.369Z,2.22
2018-04-30T02:08:40.271Z,1.85
2018-04-30T02:15:09.590Z,1.82
2018-04-30T02:21:00.539Z,2.06
2018-04-30T02:32:42.271Z,1.96
2018-04-30T02:38:33.168Z,1.89
2018-04-30T02:44:24.030Z,2.2
2018-04-30T02:50:14.923Z,2.17
2018-04-30T02:56:05.821Z,2.36
2018-04-30T03:01:56.668Z,2.52
2018-04-30T03:13:38.491Z,2.22
2018-04-30T03:25:20.226Z,2.19
2018-04-30T03:40:09.301Z,2.73
2018-04-30T03:51:54.968Z,2.08
2018-04-30T03:57:45.287Z,2.56
2018-04-30T04:04:23.830Z,2.71
2018-04-30T04:10:14.086Z,2.27
2018-04-30T04:16:04.943Z,2.69
2018-04-30T04:21:55.842Z,2.37
2018-04-30T04:33:37.612Z,6.91
2018-04-30T04:39:28.468Z,25.87
2018-04-30T04:51:10.271Z,24.04
2018-04-30T04:57:01.117Z,19.34
2018-04-30T05:08:42.885Z,13.68
2018-04-30T05:14:33.777Z,12.55
2018-04-30T05:20:52.905Z,12.24
2018-04-30T05:26:43.750Z,15.21
2018-04-30T05:32:34.651Z,14.68
2018-04-30T05:38:25.527Z,16.31
2018-04-30T05:44:16.425Z,15.05
2018-04-30T05:52:33.414Z,9.3
2018-04-30T05:58:27.975Z,10
2018-04-30T06:04:15.237Z,6.34
2018-04-30T06:10:06.063Z,5.14
2018-04-30T06:21:47.842Z,3.97
2018-04-30T06:27:38.694Z,4.37
2018-04-30T06:33:29.600Z,4.29
2018-04-30T06:39:21.066Z,5.06
2018-04-30T06:45:11.392Z,6
2018-04-30T06:51:02.269Z,6.26
2018-04-30T06:56:53.097Z,6.44
2018-04-30T07:02:44.001Z,5.9
2018-04-30T07:08:34.862Z,7.04
2018-04-30T07:14:25.766Z,6.9
2018-04-30T07:20:16.631Z,6.89
2018-04-30T07:26:07.543Z,6.88
2018-04-30T07:31:58.420Z,7.15
2018-04-30T07:37:49.278Z,5.85
2018-04-30T07:43:40.202Z,4.89
2018-04-30T07:49:31.049Z,4.29
2018-04-30T07:55:21.966Z,4.19
2018-04-30T08:01:12.835Z,4.28
2018-04-30T08:07:03.708Z,5.25
2018-04-30T08:12:54.644Z,4.38
2018-04-30T08:18:45.474Z,4.75
2018-04-30T08:24:36.344Z,4.23
2018-04-30T08:30:27.270Z,3.38
2018-04-30T08:36:18.775Z,3.74
2018-04-30T08:42:09.058Z,4.38
2018-04-30T08:47:59.896Z,6.06
2018-04-30T08:53:50.779Z,5.71
2018-04-30T08:59:41.687Z,5.66
2018-04-30T09:05:32.518Z,4.22
2018-04-30T09:11:23.484Z,3.58
2018-04-30T09:17:14.371Z,4.66
2018-04-30T09:23:05.203Z,3.7
2018-04-30T09:28:56.092Z,4.71
2018-04-30T09:34:47.037Z,8.15
2018-04-30T09:40:37.856Z,8.37
2018-04-30T09:46:28.776Z,6.85
2018-04-30T09:52:19.659Z,6.94
2018-04-30T09:58:10.556Z,5.84
2018-04-30T10:04:01.451Z,5.7
2018-04-30T10:09:52.359Z,6.66
2018-04-30T10:15:43.186Z,5.46
2018-04-30T10:21:34.105Z,5.24
2018-04-30T10:27:25.009Z,5.45
2018-04-30T10:33:15.886Z,6.1
2018-04-30T10:39:06.782Z,6.82
2018-04-30T10:44:57.665Z,6.63
2018-04-30T10:50:48.547Z,6.08
2018-04-30T10:56:39.456Z,7.49
2018-04-30T11:02:30.427Z,7.08
2018-04-30T11:08:21.226Z,5.47
2018-04-30T11:14:12.156Z,7.07
2018-04-30T11:20:03.047Z,7.27
2018-04-30T11:25:53.931Z,8.91
2018-04-30T11:31:44.849Z,5.82
2018-04-30T11:37:35.740Z,4.96
2018-04-30T11:43:26.643Z,4.33
2018-04-30T11:49:17.583Z,4.52
2018-04-30T11:55:08.484Z,5.01
2018-04-30T12:00:59.394Z,5.83
2018-04-30T12:06:50.320Z,5.4
2018-04-30T12:12:41.189Z,5.93
2018-04-30T12:18:32.132Z,8.6
2018-04-30T12:24:23.777Z,7.29
2018-04-30T12:30:13.909Z,6.9
2018-04-30T12:36:04.855Z,5.37
2018-04-30T12:41:55.718Z,4.11
2018-04-30T12:47:46.652Z,4.54
2018-04-30T12:53:37.615Z,4.21
2018-04-30T12:59:28.505Z,3.5
2018-04-30T13:05:19.366Z,3.17
2018-04-30T13:11:10.266Z,3.02
2018-04-30T13:17:01.197Z,3.51
2018-04-30T13:22:52.067Z,5.05
2018-04-30T13:28:43.050Z,6.03
2018-04-30T13:34:33.953Z,4.77
2018-04-30T13:40:24.888Z,4.45
2018-04-30T13:46:15.806Z,3.66
2018-04-30T13:52:06.722Z,3.07
2018-04-30T13:57:57.597Z,3.28
2018-04-30T14:03:48.542Z,7.57
2018-04-30T14:09:39.502Z,8.51
2018-04-30T14:15:30.386Z,8.45
2018-04-30T14:21:21.308Z,9.83
2018-04-30T14:27:12.201Z,9.25
2018-04-30T14:33:03.138Z,8.8
2018-04-30T14:38:54.021Z,11.34
2018-04-30T14:44:44.970Z,13.84
2018-04-30T14:50:35.843Z,13.63
2018-04-30T14:56:26.770Z,11.37
2018-04-30T15:02:17.675Z,9.83
2018-04-30T15:08:08.571Z,9.43
2018-04-30T15:13:59.508Z,5.95
2018-04-30T15:19:50.423Z,7.48
2018-04-30T15:25:41.312Z,5.97
2018-04-30T15:31:32.244Z,5.6
2018-04-30T15:37:23.117Z,5.45
2018-04-30T15:43:14.011Z,5.69
2018-04-30T15:49:04.955Z,4.97
2018-04-30T15:54:55.867Z,4.74
2018-04-30T16:00:46.769Z,5.51
2018-04-30T16:06:37.674Z,4.44
2018-04-30T16:12:28.594Z,4.12
2018-04-30T16:18:19.532Z,3.42
2018-04-30T16:24:10.419Z,3.45
2018-04-30T16:30:01.348Z,3.45
2018-04-30T16:35:52.253Z,3.4
2018-04-30T16:41:43.120Z,2.94
2018-04-30T16:47:34.014Z,3.23
2018-04-30T16:53:24.948Z,2.96
2018-04-30T16:59:15.869Z,2.66
2018-04-30T17:05:06.769Z,3.49
2018-04-30T17:10:57.656Z,3.31
2018-04-30T17:16:48.553Z,2.77
2018-04-30T17:22:39.461Z,2.49
2018-04-30T17:28:30.340Z,2.71
2018-04-30T17:34:21.284Z,3.07
2018-04-30T17:40:12.123Z,2.75
2018-04-30T17:46:03.019Z,2.14
2018-04-30T17:51:53.908Z,2.59
2018-04-30T17:57:44.805Z,3.36
2018-04-30T18:03:35.702Z,2.92
2018-04-30T18:09:26.618Z,2.29
2018-04-30T18:15:17.481Z,2.74
2018-04-30T18:21:08.400Z,2.96
2018-04-30T18:26:59.306Z,2.45
2018-04-30T18:32:50.180Z,2.97
2018-04-30T18:38:41.099Z,2.99
2018-04-30T18:44:32.014Z,2.77
2018-04-30T18:50:22.856Z,3.32
2018-04-30T18:56:13.747Z,2.63
2018-04-30T19:02:04.614Z,2.94
2018-04-30T19:07:55.552Z,3.01
2018-04-30T19:13:46.415Z,2.88
2018-04-30T19:19:37.307Z,3.04
2018-04-30T19:25:28.187Z,2.89
2018-04-30T19:31:19.088Z,2.91
2018-04-30T19:37:10.016Z,3.07
2018-04-30T19:43:00.848Z,3.48
2018-04-30T19:48:51.748Z,3.24
2018-04-30T19:54:42.697Z,3.63
2018-04-30T20:00:33.535Z,3.37
2018-04-30T20:06:24.450Z,3.04
2018-04-30T20:12:15.280Z,2.88
2018-04-30T20:18:06.232Z,2.75
2018-04-30T20:23:57.116Z,3.19
2018-04-30T20:29:48.020Z,2.8
2018-04-30T20:35:38.847Z,2.9
2018-04-30T20:41:29.700Z,3.01
2018-04-30T20:47:20.600Z,2.95
2018-04-30T20:53:11.521Z,3.43
2018-04-30T20:59:02.393Z,3.41
2018-04-30T21:04:53.284Z,3.25
2018-04-30T21:10:44.197Z,3.42
2018-04-30T21:16:35.037Z,3.94
2018-04-30T21:22:25.955Z,3.74
2018-04-30T21:28:16.787Z,4.2
2018-04-30T21:34:07.698Z,3.46
2018-04-30T21:39:58.616Z,3.74
2018-04-30T21:45:49.470Z,3.4
2018-04-30T21:51:40.362Z,3.54
2018-04-30T21:57:31.226Z,2.64
2018-04-30T22:03:22.199Z,2.79
2018-04-30T22:09:12.979Z,3.22
2018-04-30T22:15:03.863Z,2.92
2018-04-30T22:20:54.766Z,3.4
2018-04-30T22:26:45.757Z,2.74
2018-04-30T22:32:36.532Z,2.56
2018-04-30T22:38:27.441Z,2.76
2018-04-30T22:44:18.311Z,2.46
2018-04-30T22:50:09.202Z,2.79
2018-04-30T22:56:00.061Z,2.75
2018-04-30T23:01:50.952Z,2.71
2018-04-30T23:07:41.788Z,3.55
2018-04-30T23:13:32.673Z,3.23
2018-04-30T23:19:23.545Z,3.6
2018-04-30T23:25:14.438Z,2.71
2018-04-30T23:31:05.333Z,3.16
2018-04-30T23:36:56.202Z,3.39
2018-04-30T23:42:47.096Z,2.53
2018-04-30T23:48:38.005Z,3.6
2018-04-30T23:54:28.867Z,3.14
